Time;durP1;ratioP1;P1;durP2;ratioP2;P2;SDS_P1;SDS_P2;PMS_P1;PMS_P2;Temp;Humidity;BMP_temperature;BMP_pressure;BME280_temperature;BME280_humidity;BME280_pressure;Samples;Min_cycle;Max_cycle;Signal;HPM_P1;HPM_P2
2022/04/17 00:01:31;;;;;;;13.20;5.97;;;4.10;99.90;;;;;;5034853;28;20049;-84
2022/04/17 00:03:57;;;;;;;12.90;6.13;;;4.20;99.90;;;;;;5016530;28;20095;-84
2022/04/17 00:06:23;;;;;;;11.50;5.80;;;4.30;99.90;;;;;;5035037;28;20049;-83
2022/04/17 00:08:49;;;;;;;12.57;6.03;;;4.30;99.90;;;;;;5015940;28;20128;-83
2022/04/17 00:11:15;;;;;;;13.57;6.07;;;4.30;99.90;;;;;;5034449;28;20396;-83
2022/04/17 00:13:42;;;;;;;11.37;5.83;;;4.30;99.90;;;;;;5034499;28;20067;-84
2022/04/17 00:16:07;;;;;;;11.97;6.40;;;4.30;99.90;;;;;;5015999;28;20055;-84
2022/04/17 00:18:33;;;;;;;12.07;6.20;;;4.30;99.90;;;;;;5016708;28;20037;-83
2022/04/17 00:20:58;;;;;;;12.13;6.10;;;4.30;99.90;;;;;;5034120;28;20071;-83
2022/04/17 00:23:24;;;;;;;12.33;6.17;;;4.30;99.90;;;;;;5016296;28;20053;-83
2022/04/17 00:25:50;;;;;;;13.23;6.30;;;4.60;99.90;;;;;;5034397;28;20052;-83
2022/04/17 00:28:15;;;;;;;12.73;6.43;;;4.30;99.90;;;;;;5016538;28;20042;-83
2022/04/17 00:30:41;;;;;;;12.50;5.77;;;4.30;99.90;;;;;;5033019;28;20057;-84
2022/04/17 00:33:06;;;;;;;13.30;6.27;;;4.20;99.90;;;;;;5016579;28;20042;-84
2022/04/17 00:35:32;;;;;;;12.90;6.07;;;4.20;99.90;;;;;;5034348;28;20045;-84
2022/04/17 00:37:58;;;;;;;12.93;6.17;;;4.20;99.90;;;;;;5014897;28;20561;-84
2022/04/17 00:40:23;;;;;;;13.47;6.27;;;4.20;99.90;;;;;;5033181;28;20500;-84
2022/04/17 00:42:49;;;;;;;13.07;5.90;;;4.20;99.90;;;;;;5015834;28;20401;-84
2022/04/17 00:45:15;;;;;;;13.17;6.63;;;4.20;99.90;;;;;;5015309;28;20393;-84
2022/04/17 00:47:41;;;;;;;12.63;5.67;;;4.20;99.90;;;;;;5015786;28;20147;-84
2022/04/17 00:50:07;;;;;;;15.27;6.67;;;4.20;99.90;;;;;;5016280;28;20120;-84
2022/04/17 00:52:33;;;;;;;13.90;6.43;;;4.10;99.90;;;;;;5033073;28;20045;-84
2022/04/17 00:55:01;;;;;;;12.83;6.60;;;4.20;99.90;;;;;;5033383;28;20386;-84
2022/04/17 00:57:27;;;;;;;14.07;6.53;;;4.20;99.90;;;;;;5033659;28;20053;-84
2022/04/17 00:59:53;;;;;;;11.50;6.23;;;4.10;99.90;;;;;;5032837;28;20091;-84
2022/04/17 01:02:18;;;;;;;13.73;6.37;;;4.10;99.90;;;;;;5015731;28;20477;-84
2022/04/17 01:04:45;;;;;;;13.07;6.67;;;4.00;99.90;;;;;;5015616;28;20049;-84
2022/04/17 01:07:11;;;;;;;14.63;7.00;;;4.00;99.90;;;;;;5015001;28;20045;-84
2022/04/17 01:09:38;;;;;;;11.83;6.00;;;4.00;99.90;;;;;;5015715;28;20488;-84
2022/04/17 01:12:08;;;;;;;12.63;6.40;;;4.00;99.90;;;;;;5014694;28;20067;-84
2022/04/17 01:14:39;;;;;;;13.10;6.37;;;4.00;99.90;;;;;;5015651;28;20042;-84
2022/04/17 01:17:05;;;;;;;13.00;7.03;;;4.00;99.90;;;;;;5015943;28;20128;-84
2022/04/17 01:19:39;;;;;;;12.53;6.40;;;3.90;99.90;;;;;;5032753;28;20049;-84
2022/04/17 01:22:06;;;;;;;;;;;3.90;99.90;;;;;;5033628;28;20037;-84
2022/04/17 01:27:17;;;;;;;13.98;7.20;;;3.90;99.90;;;;;;5032329;28;20080;-84
2022/04/17 01:29:43;;;;;;;12.07;6.53;;;3.90;99.90;;;;;;5032679;28;20560;-84
2022/04/17 01:32:10;;;;;;;14.17;7.33;;;3.80;99.90;;;;;;5033129;28;20156;-84
2022/04/17 01:34:37;;;;;;;15.07;7.33;;;4.10;99.90;;;;;;5032175;28;20485;-84
2022/04/17 01:37:03;;;;;;;14.90;7.10;;;3.80;99.90;;;;;;5032710;28;20044;-84
2022/04/17 01:39:31;;;;;;;15.47;7.17;;;3.70;99.90;;;;;;5032808;28;20049;-84
2022/04/17 01:41:57;;;;;;;14.97;6.97;;;3.70;99.90;;;;;;5032160;28;20046;-84
2022/04/17 01:44:25;;;;;;;13.37;7.00;;;3.70;99.90;;;;;;5033163;28;20099;-84
2022/04/17 01:46:51;;;;;;;15.50;7.77;;;3.70;99.90;;;;;;5032691;28;20088;-84
2022/04/17 01:49:17;;;;;;;14.73;7.00;;;3.60;99.90;;;;;;5032101;28;20129;-84
2022/04/17 01:51:45;;;;;;;13.97;7.10;;;3.60;99.90;;;;;;5014642;28;20048;-84
2022/04/17 01:54:13;;;;;;;14.77;7.37;;;3.50;99.90;;;;;;5032078;28;20059;-84
2022/04/17 01:56:40;;;;;;;14.50;7.37;;;3.50;99.90;;;;;;5031994;28;20124;-84
2022/04/17 01:59:06;;;;;;;17.20;7.87;;;3.50;99.90;;;;;;5032856;28;20100;-84
2022/04/17 02:01:33;;;;;;;14.07;7.07;;;3.40;99.90;;;;;;5032172;28;20132;-84
2022/04/17 02:04:00;;;;;;;15.57;7.63;;;3.40;99.90;;;;;;5032375;28;20439;-84
2022/04/17 02:06:26;;;;;;;12.53;6.70;;;3.40;99.90;;;;;;5014466;28;20441;-84
2022/04/17 02:08:51;;;;;;;14.50;7.23;;;3.40;99.90;;;;;;5013846;28;20133;-84
2022/04/17 02:11:21;;;;;;;14.40;7.20;;;3.40;99.90;;;;;;5032569;28;20081;-84
2022/04/17 02:13:51;;;;;;;14.63;7.50;;;3.30;99.90;;;;;;5032232;28;20481;-84
2022/04/17 02:16:17;;;;;;;14.47;7.03;;;3.30;99.90;;;;;;5032012;28;20081;-84
2022/04/17 02:18:47;;;;;;;14.30;7.83;;;3.30;99.90;;;;;;5014358;28;20091;-84
2022/04/17 02:21:14;;;;;;;15.00;7.57;;;3.20;99.90;;;;;;5032517;28;20087;-84
2022/04/17 02:23:41;;;;;;;15.37;7.33;;;3.20;99.90;;;;;;5016438;28;20068;-84
2022/04/17 02:26:07;;;;;;;15.13;7.87;;;3.10;99.90;;;;;;5036587;28;20456;-84
2022/04/17 02:28:35;;;;;;;14.33;7.47;;;3.10;99.90;;;;;;5036725;28;20079;-84
2022/04/17 02:31:02;;;;;;;13.37;7.40;;;3.00;99.90;;;;;;5035700;28;20042;-84
2022/04/17 02:33:28;;;;;;;13.67;7.00;;;3.00;99.90;;;;;;5018612;28;20045;-84
2022/04/17 02:35:54;;;;;;;18.07;7.27;;;3.00;99.90;;;;;;5036185;28;20046;-84
2022/04/17 02:38:19;;;;;;;13.50;6.80;;;2.90;99.90;;;;;;5017830;28;20053;-84
2022/04/17 02:40:45;;;;;;;13.33;7.30;;;2.90;99.90;;;;;;5018328;28;20056;-84
2022/04/17 02:43:11;;;;;;;16.23;7.70;;;2.80;99.90;;;;;;5036209;28;20485;-83
2022/04/17 02:45:36;;;;;;;14.90;7.53;;;2.80;99.90;;;;;;5035062;28;20456;-84
2022/04/17 02:48:02;;;;;;;14.40;7.73;;;2.80;99.90;;;;;;5035804;28;20045;-84
2022/04/17 02:50:28;;;;;;;14.23;7.40;;;2.80;99.90;;;;;;5017524;28;20099;-84
2022/04/17 02:52:55;;;;;;;18.83;8.23;;;2.70;99.90;;;;;;5035897;28;20042;-84
2022/04/17 02:55:21;;;;;;;14.57;7.83;;;2.80;99.90;;;;;;5035717;28;20081;-84
2022/04/17 02:57:48;;;;;;;15.70;7.97;;;2.70;99.90;;;;;;5034755;28;20111;-84
2022/04/17 03:00:14;;;;;;;14.37;8.13;;;2.90;99.90;;;;;;5035862;28;20136;-84
2022/04/17 03:05:38;;;;;;;14.87;8.33;;;2.60;99.90;;;;;;5035308;28;20065;-84
2022/04/17 03:08:09;;;;;;;16.77;7.97;;;2.50;99.90;;;;;;5018121;28;20053;-84
2022/04/17 03:10:43;;;;;;;14.77;8.10;;;2.50;99.90;;;;;;5035658;28;20050;-84
2022/04/17 03:13:09;;;;;;;15.48;8.30;;;2.40;99.90;;;;;;5017156;28;20087;-84
2022/04/17 03:15:37;;;;;;;15.27;8.17;;;2.40;99.90;;;;;;5035702;28;20116;-84
2022/04/17 03:18:06;;;;;;;16.73;9.03;;;2.30;99.90;;;;;;5035520;28;20041;-84
2022/04/17 03:20:32;;;;;;;15.33;8.13;;;2.30;99.90;;;;;;5017009;28;20091;-84
2022/04/17 03:22:58;;;;;;;16.70;8.90;;;2.40;99.90;;;;;;5035012;28;20597;-84
2022/04/17 03:25:24;;;;;;;15.93;8.10;;;2.20;99.90;;;;;;5017339;28;20053;-84
2022/04/17 03:27:49;;;;;;;17.30;8.43;;;2.10;99.90;;;;;;5016531;28;20489;-84
2022/04/17 03:30:16;;;;;;;15.80;8.37;;;2.10;99.90;;;;;;5017958;28;20033;-84
2022/04/17 03:32:47;;;;;;;14.87;7.83;;;2.20;99.90;;;;;;5034608;28;20057;-84
2022/04/17 03:35:15;;;;;;;14.23;7.73;;;2.00;99.90;;;;;;5034187;28;20041;-84
2022/04/17 03:37:44;;;;;;;15.83;8.03;;;2.00;99.90;;;;;;5017044;28;20049;-84
2022/04/17 03:40:15;;;;;;;16.07;8.20;;;1.90;99.90;;;;;;5016387;28;20132;-84
2022/04/17 03:42:41;;;;;;;13.87;7.57;;;1.90;99.90;;;;;;5033609;28;20057;-84
2022/04/17 03:45:11;;;;;;;15.27;8.20;;;1.90;99.90;;;;;;5017223;28;20050;-84
2022/04/17 03:47:37;;;;;;;14.17;7.70;;;1.90;99.90;;;;;;5034623;28;20046;-84
2022/04/17 03:50:06;;;;;;;14.33;7.70;;;2.00;99.90;;;;;;5034930;28;20052;-84
2022/04/17 03:52:39;;;;;;;15.37;8.13;;;1.80;99.90;;;;;;5034799;28;20432;-84
2022/04/17 03:55:05;;;;;;;16.23;8.80;;;1.90;99.90;;;;;;5033752;28;20077;-84
2022/04/17 03:57:32;;;;;;;15.63;8.47;;;1.70;99.90;;;;;;5017068;28;20097;-84
2022/04/17 03:59:57;;;;;;;16.33;8.53;;;1.70;99.90;;;;;;5016647;28;20489;-84
2022/04/17 04:02:24;;;;;;;18.13;8.67;;;1.60;99.90;;;;;;5034038;28;20046;-84
2022/04/17 04:04:50;;;;;;;16.27;8.17;;;1.70;99.90;;;;;;5015941;28;20037;-84
2022/04/17 04:07:16;;;;;;;18.87;8.30;;;1.60;99.90;;;;;;5015897;28;20052;-84
2022/04/17 04:09:41;;;;;;;15.77;8.33;;;1.60;99.90;;;;;;5015556;28;20240;-84
2022/04/17 04:12:07;;;;;;;14.73;8.43;;;1.60;99.90;;;;;;5017222;28;20040;-84
2022/04/17 04:14:33;;;;;;;16.30;8.40;;;1.60;99.90;;;;;;5034393;28;20500;-84
2022/04/17 04:16:59;;;;;;;17.17;8.70;;;1.60;99.90;;;;;;5033591;28;20370;-84
2022/04/17 04:19:25;;;;;;;15.27;8.37;;;1.50;99.90;;;;;;5034416;28;20043;-84
2022/04/17 04:21:51;;;;;;;16.20;8.63;;;1.50;99.90;;;;;;5015316;28;20388;-84
2022/04/17 04:24:19;;;;;;;15.33;8.80;;;1.50;99.90;;;;;;5034536;28;20045;-84
2022/04/17 04:28:32;;;;;;;16.17;8.63;;;1.40;99.90;;;;;;5016264;28;20149;-84
2022/04/17 04:29:32;;;;;;;17.27;9.37;;;1.40;99.90;;;;;;5015443;28;20497;-84
2022/04/17 04:31:58;;;;;;;14.23;8.40;;;1.50;99.90;;;;;;5016077;28;20128;-84
2022/04/17 04:34:23;;;;;;;15.43;8.23;;;1.40;99.90;;;;;;5016521;28;20721;-84
2022/04/17 04:36:49;;;;;;;15.73;8.33;;;1.40;99.90;;;;;;5015424;28;20049;-84
2022/04/17 04:39:14;;;;;;;16.93;8.77;;;1.30;99.90;;;;;;5033883;28;20042;-84
2022/04/17 04:41:40;;;;;;;15.67;8.30;;;1.30;99.90;;;;;;5015523;28;20441;-84
2022/04/17 04:44:05;;;;;;;16.00;8.87;;;1.30;99.90;;;;;;5015689;28;20393;-84
2022/04/17 04:46:31;;;;;;;16.13;9.13;;;1.40;99.90;;;;;;5033902;28;20473;-84
2022/04/17 04:51:40;;;;;;;16.63;8.38;;;1.40;99.90;;;;;;5015035;28;20053;-84
2022/04/17 04:54:07;;;;;;;18.60;9.13;;;1.40;99.90;;;;;;5015986;28;20057;-84
2022/04/17 04:56:33;;;;;;;16.73;8.87;;;1.40;99.90;;;;;;5015707;28;20110;-84
2022/04/17 04:58:59;;;;;;;16.87;9.27;;;1.30;99.90;;;;;;5032507;28;20167;-84
2022/04/17 05:01:25;;;;;;;17.93;9.40;;;1.30;99.90;;;;;;5015825;28;20161;-84
2022/04/17 05:03:50;;;;;;;15.50;9.13;;;1.40;99.90;;;;;;5033418;28;20041;-84
2022/04/17 05:06:17;;;;;;;16.33;9.67;;;1.40;99.90;;;;;;5014921;28;20053;-84
2022/04/17 05:08:42;;;;;;;18.70;9.70;;;2.00;99.90;;;;;;5033228;28;20045;-84
2022/04/17 05:11:08;;;;;;;19.67;10.17;;;1.40;99.90;;;;;;5032778;28;20183;-84
2022/04/17 05:13:34;;;;;;;18.57;9.60;;;1.40;99.90;;;;;;5015867;28;20050;-84
2022/04/17 05:16:00;;;;;;;16.17;9.83;;;1.50;99.90;;;;;;5015552;28;20045;-84
2022/04/17 05:18:26;;;;;;;17.50;10.63;;;1.40;99.90;;;;;;5032255;28;20124;-84
2022/04/17 05:20:51;;;;;;;17.27;10.03;;;1.60;99.90;;;;;;5015197;28;20099;-84
2022/04/17 05:23:26;;;;;;;17.37;10.00;;;1.60;99.90;;;;;;5033239;28;20120;-84
2022/04/17 05:26:05;;;;;;;17.40;9.73;;;1.70;99.90;;;;;;5032253;28;20049;-84
2022/04/17 05:28:31;;;;;;;19.30;9.93;;;1.90;99.90;;;;;;5033113;28;20045;-84
2022/04/17 05:30:58;;;;;;;17.10;10.20;;;2.00;99.90;;;;;;5032984;28;20044;-84
2022/04/17 05:33:24;;;;;;;17.30;9.67;;;2.20;99.90;;;;;;5031775;28;20049;-84
2022/04/17 05:35:51;;;;;;;17.43;9.53;;;2.20;99.90;;;;;;5014852;28;20049;-85
2022/04/17 05:38:17;;;;;;;16.93;9.90;;;2.30;99.90;;;;;;5015218;28;20538;-84
2022/04/17 05:40:46;;;;;;;18.50;10.00;;;2.40;99.90;;;;;;5032014;28;20049;-84
2022/04/17 05:43:12;;;;;;;18.50;10.50;;;2.60;99.90;;;;;;5014973;28;20507;-84
2022/04/17 05:45:38;;;;;;;17.70;9.83;;;2.80;99.90;;;;;;5032947;28;20045;-84
2022/04/17 05:48:09;;;;;;;17.07;10.10;;;2.80;99.90;;;;;;5014291;28;20132;-84
2022/04/17 05:50:36;;;;;;;19.17;11.10;;;2.90;99.90;;;;;;5032657;28;20463;-84
2022/04/17 05:53:02;;;;;;;17.53;10.30;;;3.10;99.90;;;;;;5032373;28;20045;-84
2022/04/17 05:55:28;;;;;;;16.63;9.43;;;3.30;99.90;;;;;;5031468;28;20140;-84
2022/04/17 05:57:53;;;;;;;17.70;9.83;;;3.30;99.90;;;;;;5014305;28;20128;-87
2022/04/17 06:00:19;;;;;;;15.87;9.63;;;3.50;99.90;;;;;;5014745;28;20485;-94
2022/04/17 06:02:46;;;;;;;18.73;9.97;;;3.60;99.90;;;;;;5034721;28;20102;-88
2022/04/17 06:05:15;;;;;;;16.73;9.97;;;3.70;99.90;;;;;;5034145;28;20079;-92
2022/04/17 06:07:41;;;;;;;18.77;9.63;;;3.70;99.90;;;;;;5015932;28;20038;-93
2022/04/17 06:10:16;;;;;;;16.90;10.10;;;3.80;99.90;;;;;;5027132;28;20042;-88
2022/04/17 06:12:47;;;;;;;16.60;10.07;;;3.60;99.90;;;;;;5032673;28;20124;-90
2022/04/17 06:15:21;;;;;;;19.30;10.27;;;4.70;99.90;;;;;;5014396;28;20052;-90
2022/04/17 06:17:58;;;;;;;16.37;9.97;;;4.20;99.90;;;;;;5014493;28;20400;-90
2022/04/17 06:20:38;;;;;;;18.83;9.93;;;5.20;99.90;;;;;;5032384;28;20049;-90
2022/04/17 06:23:16;;;;;;;19.10;9.60;;;4.30;99.90;;;;;;5014195;28;20046;-90
2022/04/17 06:25:48;;;;;;;19.73;9.80;;;5.50;99.90;;;;;;5014677;28;20053;-88
2022/04/17 06:28:29;;;;;;;16.47;10.27;;;4.60;99.90;;;;;;5014844;28;20049;-87
2022/04/17 06:31:00;;;;;;;16.03;9.13;;;4.70;99.90;;;;;;5014785;28;20049;-91
2022/04/17 06:33:35;;;;;;;17.90;9.93;;;5.00;99.90;;;;;;5015035;28;20045;-89
2022/04/17 06:39:57;;;;;;;17.13;9.53;;;5.40;99.90;;;;;;4954346;28;20053;-90
2022/04/17 06:42:38;;;;;;;17.90;9.70;;;5.30;99.90;;;;;;4971005;28;20046;-90
2022/04/17 06:45:10;;;;;;;16.97;9.70;;;5.50;99.90;;;;;;4954037;28;20055;-91
2022/04/17 06:47:35;;;;;;;17.53;9.60;;;5.30;99.90;;;;;;4971242;28;20074;-89
2022/04/17 06:50:05;;;;;;;16.87;10.00;;;5.80;99.90;;;;;;4953800;28;20073;-88
2022/04/17 06:52:37;;;;;;;17.23;9.77;;;6.10;99.90;;;;;;4971260;28;20565;-88
2022/04/17 06:55:15;;;;;;;17.30;9.10;;;6.40;99.90;;;;;;4983852;28;20054;-88
2022/04/17 06:57:56;;;;;;;16.13;9.53;;;6.40;99.90;;;;;;5003528;28;20613;-89
2022/04/17 07:00:31;;;;;;;20.07;10.03;;;6.30;99.90;;;;;;5031864;28;20042;-88
2022/04/17 07:02:57;;;;;;;15.63;9.37;;;5.80;99.90;;;;;;5034250;28;20047;-88
2022/04/17 07:05:26;;;;;;;15.70;9.20;;;7.40;99.90;;;;;;5033446;28;20044;-88
2022/04/17 07:08:03;;;;;;;18.13;10.13;;;7.40;99.90;;;;;;5051899;28;20123;-89
2022/04/17 07:13:05;;;;;;;16.00;9.47;;;7.20;99.90;;;;;;5086789;22;20053;-90
2022/04/17 07:15:49;;;;;;;14.80;8.60;;;8.50;99.90;;;;;;5077157;28;20080;-89
2022/04/17 07:18:27;;;;;;;15.65;9.18;;;7.50;99.90;;;;;;5075270;28;20051;-88
2022/04/17 07:20:52;;;;;;;15.50;8.87;;;7.50;99.90;;;;;;5075276;28;20044;-89
2022/04/17 07:24:05;;;;;;;;;;;;;;;;;;;;;
2022/04/17 07:26:37;;;;;;;16.48;9.15;;;8.00;99.90;;;;;;5056798;28;20435;-93
2022/04/17 07:29:03;;;;;;;15.48;8.85;;;9.60;99.90;;;;;;5058616;28;20048;-91
2022/04/17 07:31:29;;;;;;;14.35;8.55;;;8.40;99.90;;;;;;5075712;28;20090;-89
2022/04/17 07:33:58;;;;;;;14.57;8.32;;;8.30;99.90;;;;;;5055841;28;20491;-89
2022/04/17 07:36:42;;;;;;;16.02;8.65;;;8.90;99.90;;;;;;5066836;28;20036;-90
2022/04/17 07:39:18;;;;;;;14.25;8.38;;;9.20;99.90;;;;;;5089944;22;20048;-89
2022/04/17 07:42:02;;;;;;;15.05;8.50;;;8.70;99.90;;;;;;5047087;28;20044;-88
2022/04/17 07:44:40;;;;;;;14.02;8.65;;;8.90;99.90;;;;;;5071423;28;20082;-89
2022/04/17 07:47:14;;;;;;;13.48;7.75;;;9.40;99.90;;;;;;5055374;28;20051;-94
2022/04/17 07:49:40;;;;;;;14.50;7.88;;;9.20;99.90;;;;;;5056534;28;20472;-88
2022/04/17 07:52:09;;;;;;;15.45;8.15;;;9.60;99.90;;;;;;5056190;28;20059;-88
2022/04/17 07:54:41;;;;;;;14.48;8.32;;;8.60;99.90;;;;;;5056683;28;20098;-87
2022/04/17 07:57:18;;;;;;;14.02;7.32;;;9.40;99.90;;;;;;5056569;28;20050;-88
2022/04/17 08:00:03;;;;;;;13.48;7.28;;;9.40;99.90;;;;;;5074112;28;20085;-88
2022/04/17 08:02:50;;;;;;;13.48;7.15;;;9.60;99.90;;;;;;5056706;28;20080;-88
2022/04/17 08:05:15;;;;;;;12.63;7.10;;;9.50;99.90;;;;;;5072391;28;20114;-88
2022/04/17 08:07:41;;;;;;;13.95;6.32;;;9.90;99.90;;;;;;5055448;28;20495;-88
2022/04/17 08:10:19;;;;;;;11.88;6.97;;;10.80;99.90;;;;;;5056600;28;20123;-89
2022/04/17 08:13:04;;;;;;;13.70;6.85;;;10.00;99.90;;;;;;5287451;22;20086;-88
2022/04/17 08:15:30;;;;;;;13.35;6.90;;;10.40;99.90;;;;;;5053790;28;20063;-88
2022/04/17 08:17:59;;;;;;;12.43;7.05;;;10.40;99.90;;;;;;5054306;28;20120;-88
2022/04/17 08:20:44;;;;;;;12.68;7.15;;;10.80;99.90;;;;;;5035678;28;20049;-88
2022/04/17 08:23:31;;;;;;;13.43;7.10;;;11.30;99.90;;;;;;5053607;28;20603;-87
2022/04/17 08:26:12;;;;;;;11.57;6.88;;;10.30;99.90;;;;;;5036411;28;20045;-88
2022/04/17 08:28:53;;;;;;;12.15;6.65;;;10.60;99.90;;;;;;5053638;28;20488;-88
2022/04/17 08:31:19;;;;;;;13.77;7.13;;;11.90;99.90;;;;;;5054572;28;20087;-88
2022/04/17 08:33:50;;;;;;;11.65;6.40;;;11.40;99.90;;;;;;5053219;28;20069;-88
2022/04/17 08:36:41;;;;;;;14.95;6.85;;;11.40;99.90;;;;;;5053704;28;20056;-88
2022/04/17 08:39:19;;;;;;;12.55;6.63;;;11.20;99.90;;;;;;5036500;28;20040;-88
2022/04/17 08:42:02;;;;;;;11.73;6.20;;;11.50;99.90;;;;;;5054043;28;20051;-89
2022/04/17 08:44:36;;;;;;;12.48;6.38;;;11.30;99.90;;;;;;5057619;28;20505;-86
2022/04/17 08:47:21;;;;;;;12.80;6.95;;;11.40;99.90;;;;;;5058886;28;20032;-87
2022/04/17 08:50:02;;;;;;;11.10;5.43;;;11.60;99.90;;;;;;5053096;28;20400;-88
2022/04/17 08:52:30;;;;;;;11.43;5.88;;;11.40;99.90;;;;;;5035636;28;20041;-89
2022/04/17 08:55:08;;;;;;;12.65;6.07;;;10.30;99.90;;;;;;5034353;28;20151;-90
2022/04/17 09:01:18;;;;;;;11.93;6.03;;;12.00;99.90;;;;;;5033670;28;20045;-91
2022/04/17 09:06:31;;;;;;;10.73;5.90;;;12.20;98.30;;;;;;5064611;22;20052;-87
2022/04/17 09:09:04;;;;;;;10.80;5.40;;;12.10;99.90;;;;;;5054230;28;20044;-88
2022/04/17 09:11:31;;;;;;;10.43;5.57;;;12.40;99.60;;;;;;5039325;28;20048;-87
2022/04/17 09:14:09;;;;;;;11.07;6.07;;;12.90;99.90;;;;;;5034380;28;20048;-88
2022/04/17 09:16:52;;;;;;;10.38;5.70;;;12.80;98.90;;;;;;5052984;28;20102;-87
2022/04/17 09:19:33;;;;;;;11.43;5.68;;;11.60;98.50;;;;;;5030587;28;20067;-87
2022/04/17 09:22:01;;;;;;;10.45;5.60;;;13.70;96.60;;;;;;5051792;28;20045;-88
2022/04/17 09:24:26;;;;;;;11.98;6.07;;;12.60;98.90;;;;;;5035098;28;20119;-87
2022/04/17 09:26:59;;;;;;;11.82;5.95;;;12.60;98.60;;;;;;5035018;28;20191;-87
2022/04/17 09:29:38;;;;;;;10.40;5.78;;;12.70;97.20;;;;;;5035093;28;20075;-87
2022/04/17 09:32:12;;;;;;;10.77;5.78;;;12.80;95.80;;;;;;5034099;28;20495;-89
2022/04/17 09:34:56;;;;;;;10.20;5.20;;;12.60;97.00;;;;;;5053338;28;20036;-89
2022/04/17 09:37:23;;;;;;;9.98;5.00;;;12.30;96.40;;;;;;5037951;28;20048;-93
2022/04/17 09:40:08;;;;;;;9.95;5.10;;;13.00;96.60;;;;;;5052164;28;20045;-87
2022/04/17 09:42:41;;;;;;;10.77;5.55;;;13.50;94.00;;;;;;5053007;28;20091;-89
2022/04/17 09:45:34;;;;;;;10.00;5.25;;;13.70;94.90;;;;;;5046023;28;20060;-89
2022/04/17 09:48:00;;;;;;;10.02;5.10;;;14.30;95.50;;;;;;5033000;28;20049;-89
2022/04/17 09:50:32;;;;;;;9.98;4.88;;;14.10;94.80;;;;;;5033113;28;20110;-89
2022/04/17 09:53:06;;;;;;;9.50;4.72;;;13.40;93.80;;;;;;5032201;28;20048;-89
2022/04/17 09:55:38;;;;;;;9.30;4.50;;;13.90;94.10;;;;;;5034224;28;20072;-88
2022/04/17 09:58:11;;;;;;;9.20;4.35;;;14.40;93.20;;;;;;5034367;28;20049;-89
2022/04/17 10:00:46;;;;;;;9.98;5.10;;;14.40;90.60;;;;;;5051060;28;20048;-87
2022/04/17 10:03:12;;;;;;;10.18;4.80;;;14.60;90.40;;;;;;5050857;28;20040;-88
2022/04/17 10:05:41;;;;;;;12.30;5.10;;;14.50;92.30;;;;;;5050030;28;20055;-88
2022/04/17 10:08:26;;;;;;;10.10;5.05;;;15.60;92.40;;;;;;5049710;28;20298;-87
2022/04/17 10:11:01;;;;;;;11.20;5.00;;;15.60;91.30;;;;;;5033836;28;20048;-88
2022/04/17 10:13:38;;;;;;;10.57;5.13;;;15.40;91.60;;;;;;5034315;28;20492;-88
2022/04/17 10:16:09;;;;;;;11.07;5.00;;;15.40;91.00;;;;;;5051592;28;20049;-88
2022/04/17 10:18:48;;;;;;;10.00;5.43;;;15.80;91.50;;;;;;5036483;28;20081;-90
2022/04/17 10:21:25;;;;;;;9.75;5.00;;;15.70;90.90;;;;;;5054556;28;20102;-89
2022/04/17 10:24:12;;;;;;;9.57;4.35;;;15.90;83.20;;;;;;5051128;28;20080;-90
2022/04/17 10:26:48;;;;;;;8.90;4.25;;;16.80;89.20;;;;;;5050158;28;20060;-89
2022/04/17 10:33:19;;;;;;;9.30;4.63;;;16.20;84.80;;;;;;5008589;28;20046;-88
2022/04/17 10:36:10;;;;;;;9.93;4.90;;;16.40;83.80;;;;;;5025460;28;20052;-90
2022/04/17 10:39:11;;;;;;;10.10;4.80;;;16.40;77.90;;;;;;5050981;28;20579;-89
2022/04/17 10:41:38;;;;;;;10.32;5.15;;;16.50;78.70;;;;;;5067051;28;20444;-86
2022/04/17 10:44:04;;;;;;;9.73;5.10;;;16.40;79.00;;;;;;5055778;28;20040;-85
2022/04/17 10:46:51;;;;;;;9.90;5.10;;;17.40;79.00;;;;;;5076541;28;20047;-88
2022/04/17 10:49:27;;;;;;;9.88;5.43;;;16.60;78.80;;;;;;5073249;28;20052;-92
2022/04/17 10:51:55;;;;;;;11.55;5.60;;;16.50;76.40;;;;;;5074340;28;20036;-88
2022/04/17 10:56:55;;;;;;;10.70;5.68;;;17.00;77.60;;;;;;5068211;22;20404;-88
2022/04/17 10:59:31;;;;;;;10.10;5.50;;;17.10;78.70;;;;;;5056453;28;20052;-87
2022/04/17 11:02:18;;;;;;;9.95;5.28;;;17.40;78.20;;;;;;5055356;28;20048;-86
2022/04/17 11:04:59;;;;;;;10.70;5.53;;;17.30;73.90;;;;;;5054640;28;20045;-87
2022/04/17 11:07:31;;;;;;;10.52;5.50;;;16.60;74.60;;;;;;5054160;28;20041;-89
2022/04/17 11:10:40;;;;;;;10.18;5.57;;;17.40;74.70;;;;;;5053308;28;20041;-85
2022/04/17 11:13:06;;;;;;;9.77;5.22;;;17.50;73.00;;;;;;5055796;28;20044;-88
2022/04/17 11:15:43;;;;;;;10.05;5.40;;;17.70;74.20;;;;;;5053542;28;20052;-87
2022/04/17 11:18:52;;;;;;;10.48;5.75;;;17.60;73.80;;;;;;5054631;28;20040;-86
2022/04/17 11:21:35;;;;;;;10.18;5.65;;;17.60;71.30;;;;;;5053634;28;20048;-86
2022/04/17 11:24:10;;;;;;;11.10;5.72;;;18.40;74.40;;;;;;5053740;28;20472;-87
2022/04/17 11:26:53;;;;;;;10.77;5.50;;;17.70;73.40;;;;;;5055163;28;20041;-87
2022/04/17 11:29:38;;;;;;;;;;;17.70;69.80;;;;;;5054377;28;20053;-86
2022/04/17 11:32:32;;;;;;;10.80;5.57;;;18.30;70.80;;;;;;5054840;28;19920;-87
2022/04/17 11:35:06;;;;;;;9.98;5.45;;;18.10;69.00;;;;;;5054990;28;20264;-87
2022/04/17 11:38:01;;;;;;;10.77;5.35;;;18.20;70.90;;;;;;5132275;22;20132;-87
2022/04/17 11:40:52;;;;;;;10.60;5.45;;;18.40;69.50;;;;;;5069866;22;20060;-91
2022/04/17 11:43:24;;;;;;;11.30;5.45;;;18.20;69.80;;;;;;5101857;22;20041;-92
2022/04/17 11:45:52;;;;;;;9.77;5.35;;;18.40;66.90;;;;;;5054758;28;20049;-88
2022/04/17 11:48:39;;;;;;;11.23;5.22;;;18.80;68.70;;;;;;5054970;28;20118;-90
2022/04/17 11:51:20;;;;;;;9.38;5.15;;;19.00;66.90;;;;;;5035643;28;20489;-90
2022/04/17 11:53:51;;;;;;;9.73;5.47;;;19.10;66.70;;;;;;5051976;28;20041;-88
2022/04/17 11:56:57;;;;;;;10.82;5.00;;;18.40;66.10;;;;;;5036491;28;20453;-83
2022/04/17 11:59:23;;;;;;;10.10;5.78;;;18.50;66.00;;;;;;5053774;28;20076;-86
2022/04/17 12:02:08;;;;;;;10.25;5.72;;;18.30;65.80;;;;;;5054351;28;20079;-87
2022/04/17 12:07:26;;;;;;;10.15;5.70;;;18.40;66.60;;;;;;5189397;22;20057;-87
2022/04/17 12:13:18;;;;;;;10.98;6.32;;;18.10;65.30;;;;;;5052239;28;20060;-87
2022/04/17 12:15:46;;;;;;;11.32;5.70;;;18.60;66.10;;;;;;5051983;28;20045;-86
2022/04/17 12:18:40;;;;;;;11.07;5.43;;;18.70;65.90;;;;;;5052025;28;20060;-86
2022/04/17 12:21:30;;;;;;;10.52;6.00;;;20.10;65.80;;;;;;5051906;28;20084;-85
2022/04/17 12:24:07;;;;;;;11.05;6.07;;;18.50;63.20;;;;;;5053837;28;20045;-86
2022/04/17 12:26:33;;;;;;;10.27;5.82;;;18.60;64.50;;;;;;5054377;28;20049;-86
2022/04/17 12:30:05;;;;;;;11.80;6.10;;;18.90;64.90;;;;;;5110207;22;20110;-86
2022/04/17 12:36:02;;;;;;;12.15;6.78;;;19.50;64.50;;;;;;5052885;28;20053;-87
2022/04/17 12:38:36;;;;;;;10.80;6.03;;;19.50;64.80;;;;;;5036422;28;20060;-87
2022/04/17 12:41:18;;;;;;;11.10;6.00;;;20.50;65.70;;;;;;5036160;28;20132;-87
2022/04/17 12:44:02;;;;;;;10.43;6.00;;;20.00;63.50;;;;;;5039566;28;20073;-86
2022/04/17 12:46:32;;;;;;;13.13;6.50;;;19.60;64.80;;;;;;5036330;28;20056;-87
2022/04/17 12:49:15;;;;;;;10.40;5.97;;;19.60;64.60;;;;;;5026228;22;20058;-90
2022/04/17 12:54:36;;;;;;;10.40;6.00;;;19.90;65.10;;;;;;5168373;22;20677;-90
2022/04/17 12:57:10;;;;;;;11.05;6.30;;;20.00;64.60;;;;;;5087940;22;20462;-93
2022/04/17 12:59:45;;;;;;;11.55;6.30;;;19.90;62.50;;;;;;5075801;28;20048;-89
2022/04/17 13:02:16;;;;;;;11.38;6.13;;;19.70;62.60;;;;;;5073830;28;20075;-91
2022/04/17 13:04:46;;;;;;;10.95;5.75;;;19.70;63.40;;;;;;5073546;28;20396;-90
2022/04/17 13:07:51;;;;;;;10.35;5.18;;;19.00;62.60;;;;;;5073820;28;20051;-89
2022/04/17 13:10:36;;;;;;;10.95;5.78;;;19.80;61.40;;;;;;5072591;28;20083;-90
2022/04/17 13:13:02;;;;;;;10.00;5.32;;;19.90;61.50;;;;;;5112181;23;20056;-90
2022/04/17 13:15:32;;;;;;;10.00;5.13;;;19.90;62.30;;;;;;5033455;28;20056;-92
2022/04/17 13:18:10;;;;;;;9.48;4.72;;;19.60;60.20;;;;;;5032387;28;20053;-90
2022/04/17 13:20:54;;;;;;;9.00;4.70;;;20.00;59.30;;;;;;5014996;28;20049;-90
2022/04/17 13:23:26;;;;;;;10.57;4.75;;;20.10;57.90;;;;;;5032437;28;20037;-88
2022/04/17 13:28:41;;;;;;;10.32;4.80;;;19.90;58.40;;;;;;5056586;22;20524;-88
2022/04/17 13:31:08;;;;;;;9.57;4.20;;;20.10;57.70;;;;;;5052360;28;20403;-89
2022/04/17 13:33:56;;;;;;;10.30;4.18;;;19.90;58.30;;;;;;5052586;28;20139;-87
2022/04/17 13:39:04;;;;;;;8.98;4.40;;;20.00;58.30;;;;;;5051790;22;20057;-90
2022/04/17 13:41:36;;;;;;;15.88;4.00;;;19.20;57.10;;;;;;5037980;28;20064;-87
2022/04/17 13:44:02;;;;;;;9.60;4.03;;;20.40;57.60;;;;;;5041362;23;20056;-86
2022/04/17 13:47:19;;;;;;;9.13;4.05;;;20.40;57.70;;;;;;5032252;28;20493;-91
2022/04/17 13:49:45;;;;;;;9.18;4.10;;;20.50;57.10;;;;;;5156021;22;20508;-92
2022/04/17 13:52:14;;;;;;;10.20;3.83;;;20.70;57.70;;;;;;5031807;28;20054;-88
2022/04/17 13:54:39;;;;;;;8.27;3.65;;;20.70;57.00;;;;;;5017898;28;20033;-88
2022/04/17 13:57:14;;;;;;;8.73;3.47;;;21.20;57.10;;;;;;5034457;28;20060;-88